sensor_id;sensor_type;location;lat;lon;timestamp;P1;durP1;ratioP1;P2;durP2;ratioP2
3811;SDS011;1921;49.368;11.068;2023-04-03T00:00:06;45.17;;;41.57;;
3811;SDS011;1921;49.368;11.068;2023-04-03T00:02:33;46.53;;;42.73;;
3811;SDS011;1921;49.368;11.068;2023-04-03T00:04:58;44.83;;;41.33;;
3811;SDS011;1921;49.368;11.068;2023-04-03T00:07:24;44.93;;;41.43;;
3811;SDS011;1921;49.368;11.068;2023-04-03T00:09:50;45.27;;;41.73;;
3811;SDS011;1921;49.368;11.068;2023-04-03T00:12:15;45.33;;;41.73;;
3811;SDS011;1921;49.368;11.068;2023-04-03T00:14:41;46.13;;;42.43;;
3811;SDS011;1921;49.368;11.068;2023-04-03T00:17:07;45.30;;;41.80;;
3811;SDS011;1921;49.368;11.068;2023-04-03T00:19:33;45.60;;;41.87;;
3811;SDS011;1921;49.368;11.068;2023-04-03T00:21:58;44.60;;;41.07;;
3811;SDS011;1921;49.368;11.068;2023-04-03T00:24:24;45.77;;;42.07;;
3811;SDS011;1921;49.368;11.068;2023-04-03T00:26:50;45.73;;;42.00;;
3811;SDS011;1921;49.368;11.068;2023-04-03T00:29:15;46.27;;;42.57;;
3811;SDS011;1921;49.368;11.068;2023-04-03T00:31:41;44.80;;;41.30;;
3811;SDS011;1921;49.368;11.068;2023-04-03T00:34:07;44.50;;;41.00;;
3811;SDS011;1921;49.368;11.068;2023-04-03T00:36:33;44.43;;;40.93;;
3811;SDS011;1921;49.368;11.068;2023-04-03T00:38:58;44.63;;;41.13;;
3811;SDS011;1921;49.368;11.068;2023-04-03T00:41:24;45.20;;;41.50;;
3811;SDS011;1921;49.368;11.068;2023-04-03T00:43:51;45.47;;;41.87;;
3811;SDS011;1921;49.368;11.068;2023-04-03T00:46:17;45.60;;;41.90;;
3811;SDS011;1921;49.368;11.068;2023-04-03T00:48:46;45.40;;;41.80;;
3811;SDS011;1921;49.368;11.068;2023-04-03T00:51:17;45.07;;;41.57;;
3811;SDS011;1921;49.368;11.068;2023-04-03T00:53:55;45.80;;;42.10;;
3811;SDS011;1921;49.368;11.068;2023-04-03T00:56:29;44.67;;;41.17;;
3811;SDS011;1921;49.368;11.068;2023-04-03T00:59:00;44.93;;;41.43;;
3811;SDS011;1921;49.368;11.068;2023-04-03T01:01:52;45.20;;;41.60;;
3811;SDS011;1921;49.368;11.068;2023-04-03T01:04:27;45.00;;;41.50;;
3811;SDS011;1921;49.368;11.068;2023-04-03T01:07:02;45.37;;;41.80;;
3811;SDS011;1921;49.368;11.068;2023-04-03T01:09:42;45.30;;;41.80;;
3811;SDS011;1921;49.368;11.068;2023-04-03T01:12:20;44.30;;;40.90;;
3811;SDS011;1921;49.368;11.068;2023-04-03T01:15:09;44.50;;;41.10;;
3811;SDS011;1921;49.368;11.068;2023-04-03T01:25:54;46.27;;;42.47;;
3811;SDS011;1921;49.368;11.068;2023-04-03T01:33:58;44.80;;;41.30;;
3811;SDS011;1921;49.368;11.068;2023-04-03T01:36:25;44.50;;;41.10;;
3811;SDS011;1921;49.368;11.068;2023-04-03T01:38:54;44.73;;;41.23;;
3811;SDS011;1921;49.368;11.068;2023-04-03T01:41:22;46.10;;;42.50;;
3811;SDS011;1921;49.368;11.068;2023-04-03T01:43:48;45.93;;;42.03;;
3811;SDS011;1921;49.368;11.068;2023-04-03T01:46:15;44.80;;;41.30;;
3811;SDS011;1921;49.368;11.068;2023-04-03T01:48:42;45.57;;;41.93;;
3811;SDS011;1921;49.368;11.068;2023-04-03T01:51:08;44.90;;;41.40;;
3811;SDS011;1921;49.368;11.068;2023-04-03T01:53:34;44.47;;;41.07;;
3811;SDS011;1921;49.368;11.068;2023-04-03T01:56:00;45.20;;;41.60;;
3811;SDS011;1921;49.368;11.068;2023-04-03T01:58:26;46.10;;;42.30;;
3811;SDS011;1921;49.368;11.068;2023-04-03T02:00:52;45.40;;;41.80;;
3811;SDS011;1921;49.368;11.068;2023-04-03T02:03:18;44.63;;;41.20;;
3811;SDS011;1921;49.368;11.068;2023-04-03T02:05:44;45.30;;;41.70;;
3811;SDS011;1921;49.368;11.068;2023-04-03T02:08:10;44.60;;;41.20;;
3811;SDS011;1921;49.368;11.068;2023-04-03T02:10:36;44.87;;;41.37;;
3811;SDS011;1921;49.368;11.068;2023-04-03T02:13:02;46.10;;;42.10;;
3811;SDS011;1921;49.368;11.068;2023-04-03T02:15:27;45.23;;;41.40;;
3811;SDS011;1921;49.368;11.068;2023-04-03T02:17:53;44.83;;;41.33;;
3811;SDS011;1921;49.368;11.068;2023-04-03T02:20:19;44.43;;;41.03;;
3811;SDS011;1921;49.368;11.068;2023-04-03T02:22:45;44.20;;;40.83;;
3811;SDS011;1921;49.368;11.068;2023-04-03T02:25:11;45.00;;;41.50;;
3811;SDS011;1921;49.368;11.068;2023-04-03T02:27:37;44.87;;;41.37;;
3811;SDS011;1921;49.368;11.068;2023-04-03T02:30:04;44.60;;;41.20;;
3811;SDS011;1921;49.368;11.068;2023-04-03T02:32:31;45.10;;;41.60;;
3811;SDS011;1921;49.368;11.068;2023-04-03T02:34:57;45.03;;;41.60;;
3811;SDS011;1921;49.368;11.068;2023-04-03T02:37:23;44.50;;;41.10;;
3811;SDS011;1921;49.368;11.068;2023-04-03T02:39:49;45.60;;;41.97;;
3811;SDS011;1921;49.368;11.068;2023-04-03T02:42:15;44.60;;;41.20;;
3811;SDS011;1921;49.368;11.068;2023-04-03T02:44:40;44.80;;;41.40;;
3811;SDS011;1921;49.368;11.068;2023-04-03T02:47:06;44.77;;;41.27;;
3811;SDS011;1921;49.368;11.068;2023-04-03T02:49:32;44.73;;;41.33;;
3811;SDS011;1921;49.368;11.068;2023-04-03T02:51:58;44.90;;;41.30;;
3811;SDS011;1921;49.368;11.068;2023-04-03T02:54:24;44.87;;;41.37;;
3811;SDS011;1921;49.368;11.068;2023-04-03T02:56:53;44.97;;;41.57;;
3811;SDS011;1921;49.368;11.068;2023-04-03T02:59:19;44.70;;;41.30;;
3811;SDS011;1921;49.368;11.068;2023-04-03T03:01:45;43.83;;;40.57;;
3811;SDS011;1921;49.368;11.068;2023-04-03T03:04:11;44.83;;;41.33;;
3811;SDS011;1921;49.368;11.068;2023-04-03T03:06:37;44.67;;;41.33;;
3811;SDS011;1921;49.368;11.068;2023-04-03T03:09:03;44.50;;;41.10;;
3811;SDS011;1921;49.368;11.068;2023-04-03T03:11:30;44.60;;;41.20;;
3811;SDS011;1921;49.368;11.068;2023-04-03T03:13:56;45.30;;;41.80;;
3811;SDS011;1921;49.368;11.068;2023-04-03T03:16:22;44.80;;;41.40;;
3811;SDS011;1921;49.368;11.068;2023-04-03T03:18:47;44.77;;;41.37;;
3811;SDS011;1921;49.368;11.068;2023-04-03T03:21:13;44.20;;;40.90;;
3811;SDS011;1921;49.368;11.068;2023-04-03T03:23:39;44.17;;;40.67;;
3811;SDS011;1921;49.368;11.068;2023-04-03T03:26:07;44.70;;;41.40;;
3811;SDS011;1921;49.368;11.068;2023-04-03T03:28:35;45.20;;;41.70;;
3811;SDS011;1921;49.368;11.068;2023-04-03T03:31:03;44.30;;;41.00;;
3811;SDS011;1921;49.368;11.068;2023-04-03T03:33:29;44.80;;;41.20;;
3811;SDS011;1921;49.368;11.068;2023-04-03T03:35:55;44.23;;;40.83;;
3811;SDS011;1921;49.368;11.068;2023-04-03T03:38:22;44.50;;;41.10;;
3811;SDS011;1921;49.368;11.068;2023-04-03T03:40:48;44.63;;;41.03;;
3811;SDS011;1921;49.368;11.068;2023-04-03T03:43:16;45.47;;;41.97;;
3811;SDS011;1921;49.368;11.068;2023-04-03T03:45:42;45.17;;;41.77;;
3811;SDS011;1921;49.368;11.068;2023-04-03T03:48:08;44.00;;;40.70;;
3811;SDS011;1921;49.368;11.068;2023-04-03T03:50:34;45.13;;;41.63;;
3811;SDS011;1921;49.368;11.068;2023-04-03T03:53:00;45.40;;;41.90;;
3811;SDS011;1921;49.368;11.068;2023-04-03T03:55:26;44.27;;;40.87;;
3811;SDS011;1921;49.368;11.068;2023-04-03T03:57:52;44.53;;;41.20;;
3811;SDS011;1921;49.368;11.068;2023-04-03T04:00:18;44.20;;;40.87;;
3811;SDS011;1921;49.368;11.068;2023-04-03T04:02:44;44.07;;;40.70;;
3811;SDS011;1921;49.368;11.068;2023-04-03T04:05:10;44.37;;;41.07;;
3811;SDS011;1921;49.368;11.068;2023-04-03T04:07:36;44.17;;;40.87;;
3811;SDS011;1921;49.368;11.068;2023-04-03T04:10:02;45.13;;;41.67;;
3811;SDS011;1921;49.368;11.068;2023-04-03T04:12:29;45.63;;;41.87;;
3811;SDS011;1921;49.368;11.068;2023-04-03T04:14:54;44.97;;;41.57;;
3811;SDS011;1921;49.368;11.068;2023-04-03T04:17:21;43.87;;;40.67;;
3811;SDS011;1921;49.368;11.068;2023-04-03T04:19:47;45.00;;;41.30;;
3811;SDS011;1921;49.368;11.068;2023-04-03T04:22:12;44.07;;;40.77;;
3811;SDS011;1921;49.368;11.068;2023-04-03T04:24:38;43.57;;;40.37;;
3811;SDS011;1921;49.368;11.068;2023-04-03T04:27:04;46.17;;;42.50;;
3811;SDS011;1921;49.368;11.068;2023-04-03T04:29:29;45.67;;;41.80;;
3811;SDS011;1921;49.368;11.068;2023-04-03T04:32:00;45.70;;;42.10;;
3811;SDS011;1921;49.368;11.068;2023-04-03T04:34:26;44.87;;;41.10;;
3811;SDS011;1921;49.368;11.068;2023-04-03T04:36:52;45.43;;;41.73;;
3811;SDS011;1921;49.368;11.068;2023-04-03T04:39:18;45.03;;;41.63;;
3811;SDS011;1921;49.368;11.068;2023-04-03T04:41:43;45.43;;;41.93;;
3811;SDS011;1921;49.368;11.068;2023-04-03T04:44:11;44.70;;;41.20;;
3811;SDS011;1921;49.368;11.068;2023-04-03T04:46:37;45.60;;;41.83;;
3811;SDS011;1921;49.368;11.068;2023-04-03T04:49:02;46.57;;;42.53;;
3811;SDS011;1921;49.368;11.068;2023-04-03T04:51:28;44.50;;;41.20;;
3811;SDS011;1921;49.368;11.068;2023-04-03T04:53:54;44.67;;;41.27;;
3811;SDS011;1921;49.368;11.068;2023-04-03T04:56:20;45.83;;;42.13;;
3811;SDS011;1921;49.368;11.068;2023-04-03T04:58:45;43.70;;;40.50;;
3811;SDS011;1921;49.368;11.068;2023-04-03T05:01:12;45.63;;;42.10;;
3811;SDS011;1921;49.368;11.068;2023-04-03T05:03:38;44.97;;;41.60;;
3811;SDS011;1921;49.368;11.068;2023-04-03T05:06:04;44.50;;;41.03;;
3811;SDS011;1921;49.368;11.068;2023-04-03T05:08:30;45.37;;;41.93;;
3811;SDS011;1921;49.368;11.068;2023-04-03T05:10:56;45.27;;;41.80;;
3811;SDS011;1921;49.368;11.068;2023-04-03T05:13:22;46.23;;;42.53;;
3811;SDS011;1921;49.368;11.068;2023-04-03T05:15:48;43.57;;;40.37;;
3811;SDS011;1921;49.368;11.068;2023-04-03T05:18:13;44.97;;;41.57;;
3811;SDS011;1921;49.368;11.068;2023-04-03T05:20:39;43.90;;;40.67;;
3811;SDS011;1921;49.368;11.068;2023-04-03T05:23:05;45.80;;;42.20;;
3811;SDS011;1921;49.368;11.068;2023-04-03T05:25:31;45.93;;;42.23;;
3811;SDS011;1921;49.368;11.068;2023-04-03T05:27:57;45.70;;;42.07;;
3811;SDS011;1921;49.368;11.068;2023-04-03T05:30:23;45.73;;;42.23;;
3811;SDS011;1921;49.368;11.068;2023-04-03T05:32:49;45.77;;;42.07;;
3811;SDS011;1921;49.368;11.068;2023-04-03T05:35:15;44.30;;;41.00;;
3811;SDS011;1921;49.368;11.068;2023-04-03T05:37:40;46.83;;;43.00;;
3811;SDS011;1921;49.368;11.068;2023-04-03T05:40:06;45.73;;;42.23;;
3811;SDS011;1921;49.368;11.068;2023-04-03T05:42:33;44.60;;;41.30;;
3811;SDS011;1921;49.368;11.068;2023-04-03T05:44:59;43.87;;;40.63;;
3811;SDS011;1921;49.368;11.068;2023-04-03T05:47:24;45.93;;;42.43;;
3811;SDS011;1921;49.368;11.068;2023-04-03T05:49:50;46.50;;;42.80;;
3811;SDS011;1921;49.368;11.068;2023-04-03T05:52:26;44.93;;;41.53;;
3811;SDS011;1921;49.368;11.068;2023-04-03T05:55:00;45.60;;;42.00;;
3811;SDS011;1921;49.368;11.068;2023-04-03T05:57:25;46.27;;;42.57;;
3811;SDS011;1921;49.368;11.068;2023-04-03T05:59:51;46.10;;;42.17;;
3811;SDS011;1921;49.368;11.068;2023-04-03T06:02:18;44.93;;;41.43;;
3811;SDS011;1921;49.368;11.068;2023-04-03T06:04:47;45.40;;;42.00;;
3811;SDS011;1921;49.368;11.068;2023-04-03T06:07:17;46.27;;;42.67;;
3811;SDS011;1921;49.368;11.068;2023-04-03T06:09:51;46.80;;;43.00;;
3811;SDS011;1921;49.368;11.068;2023-04-03T06:12:18;48.00;;;43.57;;
3811;SDS011;1921;49.368;11.068;2023-04-03T06:14:44;45.90;;;42.30;;
3811;SDS011;1921;49.368;11.068;2023-04-03T06:17:10;46.87;;;43.00;;
3811;SDS011;1921;49.368;11.068;2023-04-03T06:19:37;46.30;;;42.47;;
3811;SDS011;1921;49.368;11.068;2023-04-03T06:22:03;46.23;;;42.57;;
3811;SDS011;1921;49.368;11.068;2023-04-03T06:24:29;46.33;;;42.73;;
3811;SDS011;1921;49.368;11.068;2023-04-03T06:26:55;46.70;;;42.90;;
3811;SDS011;1921;49.368;11.068;2023-04-03T06:29:22;46.27;;;42.47;;
3811;SDS011;1921;49.368;11.068;2023-04-03T06:31:48;46.50;;;42.80;;
3811;SDS011;1921;49.368;11.068;2023-04-03T06:34:15;45.70;;;42.13;;
3811;SDS011;1921;49.368;11.068;2023-04-03T06:36:41;47.20;;;43.10;;
3811;SDS011;1921;49.368;11.068;2023-04-03T06:39:09;46.07;;;41.90;;
3811;SDS011;1921;49.368;11.068;2023-04-03T06:41:43;46.70;;;42.90;;
3811;SDS011;1921;49.368;11.068;2023-04-03T06:44:09;45.80;;;42.20;;
3811;SDS011;1921;49.368;11.068;2023-04-03T06:46:37;45.97;;;42.30;;
3811;SDS011;1921;49.368;11.068;2023-04-03T06:49:03;46.70;;;42.80;;
3811;SDS011;1921;49.368;11.068;2023-04-03T06:51:32;47.77;;;43.87;;
3811;SDS011;1921;49.368;11.068;2023-04-03T06:53:58;47.37;;;43.47;;
3811;SDS011;1921;49.368;11.068;2023-04-03T06:56:25;47.10;;;42.90;;
3811;SDS011;1921;49.368;11.068;2023-04-03T06:58:52;46.30;;;42.60;;
3811;SDS011;1921;49.368;11.068;2023-04-03T07:01:19;45.90;;;42.20;;
3811;SDS011;1921;49.368;11.068;2023-04-03T07:03:46;46.80;;;42.60;;
3811;SDS011;1921;49.368;11.068;2023-04-03T07:06:14;46.80;;;43.00;;
3811;SDS011;1921;49.368;11.068;2023-04-03T07:08:41;48.20;;;43.80;;
3811;SDS011;1921;49.368;11.068;2023-04-03T07:11:08;45.73;;;42.13;;
3811;SDS011;1921;49.368;11.068;2023-04-03T07:13:35;46.60;;;42.73;;
3811;SDS011;1921;49.368;11.068;2023-04-03T07:16:01;47.10;;;43.00;;
3811;SDS011;1921;49.368;11.068;2023-04-03T07:18:29;47.10;;;43.20;;
3811;SDS011;1921;49.368;11.068;2023-04-03T07:20:56;47.70;;;43.60;;
3811;SDS011;1921;49.368;11.068;2023-04-03T07:23:22;47.43;;;43.23;;
3811;SDS011;1921;49.368;11.068;2023-04-03T07:25:49;47.20;;;43.37;;
3811;SDS011;1921;49.368;11.068;2023-04-03T07:28:16;47.50;;;43.20;;
3811;SDS011;1921;49.368;11.068;2023-04-03T07:33:11;46.90;;;42.80;;
3811;SDS011;1921;49.368;11.068;2023-04-03T07:35:38;47.23;;;43.23;;
3811;SDS011;1921;49.368;11.068;2023-04-03T07:38:05;47.13;;;43.23;;
3811;SDS011;1921;49.368;11.068;2023-04-03T07:40:31;47.27;;;43.20;;
3811;SDS011;1921;49.368;11.068;2023-04-03T07:42:57;48.30;;;44.10;;
3811;SDS011;1921;49.368;11.068;2023-04-03T07:45:23;47.37;;;43.10;;
3811;SDS011;1921;49.368;11.068;2023-04-03T07:47:50;48.20;;;43.90;;
3811;SDS011;1921;49.368;11.068;2023-04-03T07:50:16;47.10;;;43.10;;
3811;SDS011;1921;49.368;11.068;2023-04-03T07:52:42;45.83;;;42.00;;
3811;SDS011;1921;49.368;11.068;2023-04-03T07:55:08;47.37;;;43.30;;
3811;SDS011;1921;49.368;11.068;2023-04-03T07:57:34;46.30;;;42.57;;
3811;SDS011;1921;49.368;11.068;2023-04-03T08:00:00;47.40;;;43.40;;
3811;SDS011;1921;49.368;11.068;2023-04-03T08:02:26;48.13;;;43.77;;
3811;SDS011;1921;49.368;11.068;2023-04-03T08:04:52;47.50;;;43.17;;
3811;SDS011;1921;49.368;11.068;2023-04-03T08:07:17;47.00;;;43.00;;
3811;SDS011;1921;49.368;11.068;2023-04-03T08:09:43;46.37;;;42.53;;
3811;SDS011;1921;49.368;11.068;2023-04-03T08:12:09;47.70;;;43.37;;
3811;SDS011;1921;49.368;11.068;2023-04-03T08:14:36;47.83;;;43.57;;
3811;SDS011;1921;49.368;11.068;2023-04-03T08:17:02;47.77;;;43.63;;
3811;SDS011;1921;49.368;11.068;2023-04-03T08:19:31;47.70;;;43.50;;
3811;SDS011;1921;49.368;11.068;2023-04-03T08:21:56;46.57;;;42.77;;
3811;SDS011;1921;49.368;11.068;2023-04-03T08:24:24;47.03;;;43.13;;
3811;SDS011;1921;49.368;11.068;2023-04-03T08:26:50;47.63;;;43.20;;
3811;SDS011;1921;49.368;11.068;2023-04-03T08:29:16;47.20;;;43.00;;
3811;SDS011;1921;49.368;11.068;2023-04-03T08:31:41;48.27;;;44.17;;
3811;SDS011;1921;49.368;11.068;2023-04-03T08:34:07;47.40;;;43.20;;
3811;SDS011;1921;49.368;11.068;2023-04-03T08:36:33;47.70;;;43.40;;
3811;SDS011;1921;49.368;11.068;2023-04-03T08:38:59;48.20;;;44.00;;
3811;SDS011;1921;49.368;11.068;2023-04-03T08:41:35;46.83;;;42.80;;
3811;SDS011;1921;49.368;11.068;2023-04-03T08:46:55;47.80;;;43.60;;
3811;SDS011;1921;49.368;11.068;2023-04-03T08:49:27;47.20;;;43.03;;
3811;SDS011;1921;49.368;11.068;2023-04-03T08:52:09;46.60;;;42.63;;
3811;SDS011;1921;49.368;11.068;2023-04-03T08:54:50;47.23;;;43.17;;
3811;SDS011;1921;49.368;11.068;2023-04-03T09:00:34;47.30;;;43.20;;
3811;SDS011;1921;49.368;11.068;2023-04-03T09:03:37;46.33;;;42.30;;
3811;SDS011;1921;49.368;11.068;2023-04-03T09:23:50;46.70;;;42.60;;
3811;SDS011;1921;49.368;11.068;2023-04-03T09:29:01;47.30;;;43.20;;
3811;SDS011;1921;49.368;11.068;2023-04-03T09:31:39;47.70;;;43.40;;
3811;SDS011;1921;49.368;11.068;2023-04-03T09:34:22;47.27;;;43.07;;
3811;SDS011;1921;49.368;11.068;2023-04-03T09:36:56;48.47;;;43.93;;
3811;SDS011;1921;49.368;11.068;2023-04-03T09:39:48;48.30;;;43.90;;
3811;SDS011;1921;49.368;11.068;2023-04-03T09:42:19;48.07;;;43.73;;
3811;SDS011;1921;49.368;11.068;2023-04-03T09:44:54;47.70;;;43.40;;
3811;SDS011;1921;49.368;11.068;2023-04-03T09:47:34;48.60;;;44.17;;
3811;SDS011;1921;49.368;11.068;2023-04-03T09:50:35;49.60;;;44.70;;
3811;SDS011;1921;49.368;11.068;2023-04-03T09:52:54;48.43;;;43.83;;
3811;SDS011;1921;49.368;11.068;2023-04-03T09:57:52;46.90;;;42.90;;
3811;SDS011;1921;49.368;11.068;2023-04-03T10:00:35;46.13;;;42.20;;
3811;SDS011;1921;49.368;11.068;2023-04-03T10:03:04;47.67;;;43.30;;
3811;SDS011;1921;49.368;11.068;2023-04-03T10:05:48;47.43;;;43.10;;
3811;SDS011;1921;49.368;11.068;2023-04-03T10:10:49;48.43;;;44.03;;
3811;SDS011;1921;49.368;11.068;2023-04-03T10:13:55;48.03;;;43.73;;
3811;SDS011;1921;49.368;11.068;2023-04-03T10:16:44;47.90;;;43.70;;
3811;SDS011;1921;49.368;11.068;2023-04-03T10:19:45;47.40;;;43.20;;
3811;SDS011;1921;49.368;11.068;2023-04-03T10:22:27;48.00;;;43.60;;
3811;SDS011;1921;49.368;11.068;2023-04-03T10:25:29;47.20;;;43.10;;
3811;SDS011;1921;49.368;11.068;2023-04-03T10:33:52;47.70;;;43.50;;
3811;SDS011;1921;49.368;11.068;2023-04-03T10:36:40;47.97;;;43.77;;
3811;SDS011;1921;49.368;11.068;2023-04-03T10:39:42;47.43;;;43.20;;
3811;SDS011;1921;49.368;11.068;2023-04-03T10:42:28;47.53;;;43.23;;
3811;SDS011;1921;49.368;11.068;2023-04-03T10:53:56;48.80;;;44.10;;
3811;SDS011;1921;49.368;11.068;2023-04-03T10:56:37;48.63;;;44.23;;
3811;SDS011;1921;49.368;11.068;2023-04-03T10:59:34;47.73;;;43.43;;
3811;SDS011;1921;49.368;11.068;2023-04-03T11:02:23;48.57;;;43.83;;
3811;SDS011;1921;49.368;11.068;2023-04-03T11:04:57;48.10;;;43.60;;
3811;SDS011;1921;49.368;11.068;2023-04-03T11:07:52;49.20;;;44.50;;
3811;SDS011;1921;49.368;11.068;2023-04-03T11:15:48;49.10;;;44.40;;
3811;SDS011;1921;49.368;11.068;2023-04-03T11:18:21;48.13;;;43.73;;
3811;SDS011;1921;49.368;11.068;2023-04-03T11:21:01;47.87;;;43.37;;
3811;SDS011;1921;49.368;11.068;2023-04-03T11:23:58;48.23;;;43.83;;
3811;SDS011;1921;49.368;11.068;2023-04-03T11:26:31;48.17;;;43.40;;
3811;SDS011;1921;49.368;11.068;2023-04-03T11:29:03;48.37;;;43.87;;
3811;SDS011;1921;49.368;11.068;2023-04-03T11:34:35;49.13;;;44.33;;
3811;SDS011;1921;49.368;11.068;2023-04-03T11:42:42;48.53;;;43.63;;
3811;SDS011;1921;49.368;11.068;2023-04-03T11:47:53;48.50;;;44.10;;
3811;SDS011;1921;49.368;11.068;2023-04-03T11:55:42;49.83;;;44.97;;
3811;SDS011;1921;49.368;11.068;2023-04-03T11:58:16;49.40;;;44.60;;
3811;SDS011;1921;49.368;11.068;2023-04-03T12:01:02;50.57;;;45.47;;
3811;SDS011;1921;49.368;11.068;2023-04-03T12:09:24;49.80;;;44.80;;
3811;SDS011;1921;49.368;11.068;2023-04-03T12:12:42;49.67;;;44.87;;
3811;SDS011;1921;49.368;11.068;2023-04-03T12:16:18;49.47;;;44.47;;
3811;SDS011;1921;49.368;11.068;2023-04-03T12:26:46;48.70;;;43.73;;
3811;SDS011;1921;49.368;11.068;2023-04-03T12:40:49;48.77;;;44.07;;
3811;SDS011;1921;49.368;11.068;2023-04-03T12:43:36;48.90;;;44.30;;
3811;SDS011;1921;49.368;11.068;2023-04-03T12:46:20;48.73;;;44.13;;
3811;SDS011;1921;49.368;11.068;2023-04-03T12:48:50;49.57;;;44.57;;
3811;SDS011;1921;49.368;11.068;2023-04-03T12:51:26;50.13;;;45.10;;
3811;SDS011;1921;49.368;11.068;2023-04-03T12:57:17;49.27;;;44.57;;
3811;SDS011;1921;49.368;11.068;2023-04-03T12:59:46;48.87;;;44.20;;
3811;SDS011;1921;49.368;11.068;2023-04-03T13:04:53;49.40;;;44.50;;
3811;SDS011;1921;49.368;11.068;2023-04-03T13:07:28;50.00;;;45.00;;
3811;SDS011;1921;49.368;11.068;2023-04-03T13:10:09;50.20;;;45.20;;
3811;SDS011;1921;49.368;11.068;2023-04-03T13:12:47;48.83;;;44.13;;
3811;SDS011;1921;49.368;11.068;2023-04-03T13:15:25;50.10;;;45.10;;
3811;SDS011;1921;49.368;11.068;2023-04-03T13:17:55;49.77;;;44.97;;
3811;SDS011;1921;49.368;11.068;2023-04-03T13:20:24;49.20;;;44.50;;
3811;SDS011;1921;49.368;11.068;2023-04-03T13:25:34;49.90;;;44.90;;
3811;SDS011;1921;49.368;11.068;2023-04-03T13:28:05;50.27;;;45.37;;
3811;SDS011;1921;49.368;11.068;2023-04-03T13:30:36;48.77;;;44.20;;
3811;SDS011;1921;49.368;11.068;2023-04-03T13:33:05;49.17;;;44.47;;
3811;SDS011;1921;49.368;11.068;2023-04-03T13:35:45;49.53;;;44.73;;
3811;SDS011;1921;49.368;11.068;2023-04-03T13:40:50;49.83;;;44.93;;
3811;SDS011;1921;49.368;11.068;2023-04-03T13:43:25;49.23;;;44.53;;
3811;SDS011;1921;49.368;11.068;2023-04-03T13:48:45;49.70;;;44.70;;
3811;SDS011;1921;49.368;11.068;2023-04-03T13:51:24;49.57;;;44.77;;
3811;SDS011;1921;49.368;11.068;2023-04-03T13:53:58;49.73;;;44.37;;
3811;SDS011;1921;49.368;11.068;2023-04-03T13:56:34;49.40;;;44.70;;
3811;SDS011;1921;49.368;11.068;2023-04-03T14:04:20;49.50;;;44.70;;
3811;SDS011;1921;49.368;11.068;2023-04-03T14:06:50;49.80;;;44.87;;
3811;SDS011;1921;49.368;11.068;2023-04-03T14:09:17;50.07;;;45.07;;
3811;SDS011;1921;49.368;11.068;2023-04-03T14:11:45;49.77;;;44.97;;
3811;SDS011;1921;49.368;11.068;2023-04-03T14:14:17;48.80;;;44.17;;
3811;SDS011;1921;49.368;11.068;2023-04-03T14:16:50;49.00;;;44.33;;
3811;SDS011;1921;49.368;11.068;2023-04-03T14:19:30;48.90;;;44.27;;
3811;SDS011;1921;49.368;11.068;2023-04-03T14:21:59;49.00;;;44.20;;
3811;SDS011;1921;49.368;11.068;2023-04-03T14:24:36;49.63;;;45.00;;
3811;SDS011;1921;49.368;11.068;2023-04-03T14:27:10;48.63;;;43.93;;
3811;SDS011;1921;49.368;11.068;2023-04-03T14:29:47;49.13;;;44.53;;
3811;SDS011;1921;49.368;11.068;2023-04-03T14:32:15;49.30;;;44.50;;
3811;SDS011;1921;49.368;11.068;2023-04-03T14:34:46;49.80;;;44.90;;
3811;SDS011;1921;49.368;11.068;2023-04-03T14:37:15;49.60;;;44.80;;
3811;SDS011;1921;49.368;11.068;2023-04-03T14:39:45;49.20;;;44.40;;
3811;SDS011;1921;49.368;11.068;2023-04-03T14:42:16;49.80;;;45.10;;
3811;SDS011;1921;49.368;11.068;2023-04-03T14:44:49;49.20;;;44.50;;
3811;SDS011;1921;49.368;11.068;2023-04-03T14:47:18;48.60;;;44.00;;
3811;SDS011;1921;49.368;11.068;2023-04-03T14:49:46;47.90;;;43.50;;
3811;SDS011;1921;49.368;11.068;2023-04-03T14:52:18;47.93;;;43.53;;
3811;SDS011;1921;49.368;11.068;2023-04-03T14:54:51;48.50;;;44.10;;
3811;SDS011;1921;49.368;11.068;2023-04-03T14:57:18;48.33;;;43.93;;
3811;SDS011;1921;49.368;11.068;2023-04-03T14:59:49;49.47;;;44.40;;
3811;SDS011;1921;49.368;11.068;2023-04-03T15:04:53;48.30;;;43.80;;
3811;SDS011;1921;49.368;11.068;2023-04-03T15:07:21;49.70;;;44.90;;
3811;SDS011;1921;49.368;11.068;2023-04-03T15:09:48;47.80;;;43.50;;
3811;SDS011;1921;49.368;11.068;2023-04-03T15:12:15;48.27;;;43.87;;
3811;SDS011;1921;49.368;11.068;2023-04-03T15:14:40;48.60;;;43.50;;
3811;SDS011;1921;49.368;11.068;2023-04-03T15:17:06;48.63;;;44.23;;
3811;SDS011;1921;49.368;11.068;2023-04-03T15:19:46;47.80;;;43.50;;
3811;SDS011;1921;49.368;11.068;2023-04-03T15:22:16;48.30;;;44.00;;
3811;SDS011;1921;49.368;11.068;2023-04-03T15:24:44;47.50;;;43.30;;
3811;SDS011;1921;49.368;11.068;2023-04-03T15:27:10;47.80;;;43.40;;
3811;SDS011;1921;49.368;11.068;2023-04-03T15:29:38;51.73;;;46.77;;
3811;SDS011;1921;49.368;11.068;2023-04-03T15:32:05;48.70;;;44.10;;
3811;SDS011;1921;49.368;11.068;2023-04-03T15:34:32;48.50;;;44.10;;
3811;SDS011;1921;49.368;11.068;2023-04-03T15:36:58;49.30;;;44.77;;
3811;SDS011;1921;49.368;11.068;2023-04-03T15:39:24;48.57;;;44.00;;
3811;SDS011;1921;49.368;11.068;2023-04-03T15:41:51;49.73;;;45.03;;
3811;SDS011;1921;49.368;11.068;2023-04-03T15:44:17;51.73;;;46.63;;
3811;SDS011;1921;49.368;11.068;2023-04-03T15:46:44;48.77;;;44.30;;
3811;SDS011;1921;49.368;11.068;2023-04-03T15:49:11;49.20;;;44.60;;
3811;SDS011;1921;49.368;11.068;2023-04-03T15:51:37;48.73;;;43.93;;
3811;SDS011;1921;49.368;11.068;2023-04-03T15:54:03;48.13;;;43.57;;
3811;SDS011;1921;49.368;11.068;2023-04-03T15:56:29;48.10;;;43.70;;
3811;SDS011;1921;49.368;11.068;2023-04-03T15:58:55;49.20;;;44.50;;
3811;SDS011;1921;49.368;11.068;2023-04-03T16:01:20;48.20;;;43.80;;
3811;SDS011;1921;49.368;11.068;2023-04-03T16:03:46;48.37;;;43.90;;
3811;SDS011;1921;49.368;11.068;2023-04-03T16:06:12;48.63;;;44.13;;
3811;SDS011;1921;49.368;11.068;2023-04-03T16:08:40;48.90;;;44.30;;
3811;SDS011;1921;49.368;11.068;2023-04-03T16:11:07;48.03;;;43.57;;
3811;SDS011;1921;49.368;11.068;2023-04-03T16:13:33;48.77;;;44.27;;
3811;SDS011;1921;49.368;11.068;2023-04-03T16:15:59;49.07;;;44.47;;
3811;SDS011;1921;49.368;11.068;2023-04-03T16:18:26;48.70;;;44.20;;
3811;SDS011;1921;49.368;11.068;2023-04-03T16:20:53;48.33;;;43.83;;
3811;SDS011;1921;49.368;11.068;2023-04-03T16:23:19;47.77;;;43.50;;
3811;SDS011;1921;49.368;11.068;2023-04-03T16:25:45;46.93;;;42.83;;
3811;SDS011;1921;49.368;11.068;2023-04-03T16:28:15;47.67;;;43.47;;
3811;SDS011;1921;49.368;11.068;2023-04-03T16:30:43;46.43;;;42.43;;
3811;SDS011;1921;49.368;11.068;2023-04-03T16:33:10;47.87;;;43.57;;
3811;SDS011;1921;49.368;11.068;2023-04-03T16:35:37;48.77;;;44.23;;
3811;SDS011;1921;49.368;11.068;2023-04-03T16:38:03;48.37;;;43.67;;
3811;SDS011;1921;49.368;11.068;2023-04-03T16:40:29;48.10;;;43.70;;
3811;SDS011;1921;49.368;11.068;2023-04-03T16:42:55;48.07;;;43.77;;
3811;SDS011;1921;49.368;11.068;2023-04-03T16:45:20;48.43;;;43.90;;
3811;SDS011;1921;49.368;11.068;2023-04-03T16:47:46;47.93;;;43.63;;
3811;SDS011;1921;49.368;11.068;2023-04-03T16:50:12;47.70;;;43.50;;
3811;SDS011;1921;49.368;11.068;2023-04-03T16:52:38;47.63;;;43.37;;
3811;SDS011;1921;49.368;11.068;2023-04-03T16:55:03;47.10;;;43.10;;
3811;SDS011;1921;49.368;11.068;2023-04-03T16:57:30;47.37;;;43.27;;
3811;SDS011;1921;49.368;11.068;2023-04-03T16:59:56;47.97;;;43.80;;